createdAt,value
2022-08-26T00:01:56.014Z,8.05
2022-08-26T00:04:25.442Z,8.23
2022-08-26T00:06:54.544Z,9.15
2022-08-26T00:09:22.712Z,9.88
2022-08-26T00:11:52.406Z,6.07
2022-08-26T00:14:19.215Z,6.65
2022-08-26T00:16:47.782Z,8.43
2022-08-26T00:19:18.542Z,6.45
2022-08-26T00:21:48.506Z,7.53
2022-08-26T00:24:16.388Z,8.07
2022-08-26T00:26:44.039Z,9.57
2022-08-26T00:29:12.254Z,7.60
2022-08-26T00:31:39.824Z,8.63
2022-08-26T00:34:07.252Z,7.63
2022-08-26T00:36:37.181Z,10.90
2022-08-26T00:39:04.776Z,6.35
2022-08-26T00:41:34.959Z,8.90
2022-08-26T00:44:01.885Z,9.60
2022-08-26T00:46:35.150Z,10.30
2022-08-26T00:49:22.735Z,8.95
2022-08-26T00:52:00.423Z,6.43
2022-08-26T00:54:33.125Z,9.20
2022-08-26T00:57:16.410Z,8.27
2022-08-26T00:59:51.285Z,8.80
2022-08-26T01:02:21.266Z,7.47
2022-08-26T01:04:57.625Z,5.57
2022-08-26T01:07:30.045Z,8.25
2022-08-26T01:12:31.771Z,8.50
2022-08-26T01:14:58.940Z,8.52
2022-08-26T01:17:25.950Z,5.55
2022-08-26T01:20:02.639Z,8.32
2022-08-26T01:23:01.582Z,6.57
2022-08-26T01:25:33.445Z,8.57
2022-08-26T01:28:15.368Z,7.03
2022-08-26T01:30:47.287Z,6.68
2022-08-26T01:33:23.600Z,8.68
2022-08-26T01:35:51.153Z,8.07
2022-08-26T01:38:18.665Z,4.97
2022-08-26T01:40:45.969Z,7.97
2022-08-26T01:43:22.950Z,7.13
2022-08-26T01:45:54.516Z,6.75
2022-08-26T01:48:27.433Z,7.82
2022-08-26T01:50:55.005Z,7.38
2022-08-26T01:53:24.218Z,5.82
2022-08-26T01:55:57.293Z,10.77
2022-08-26T01:58:33.401Z,6.60
2022-08-26T02:01:00.896Z,9.00
2022-08-26T02:03:30.025Z,8.20
2022-08-26T02:06:04.606Z,11.10
2022-08-26T02:08:44.872Z,5.75
2022-08-26T02:11:13.330Z,6.55
2022-08-26T02:13:45.493Z,7.13
2022-08-26T02:16:16.154Z,7.53
2022-08-26T02:18:44.877Z,10.68
2022-08-26T02:21:14.053Z,5.45
2022-08-26T02:23:42.667Z,6.75
2022-08-26T02:26:19.368Z,7.63
2022-08-26T02:29:02.857Z,8.95
2022-08-26T02:31:30.171Z,7.65
2022-08-26T02:34:11.966Z,7.40
2022-08-26T02:36:39.482Z,7.10
2022-08-26T02:39:07.854Z,6.82
2022-08-26T02:41:36.136Z,7.55
2022-08-26T02:44:12.350Z,9.02
2022-08-26T02:46:39.443Z,11.45
2022-08-26T02:49:07.196Z,11.40
2022-08-26T02:51:34.055Z,11.57
2022-08-26T02:54:01.064Z,8.40
2022-08-26T02:56:29.362Z,9.82
2022-08-26T02:58:56.436Z,9.07
2022-08-26T03:01:32.832Z,10.52
2022-08-26T03:04:02.342Z,8.73
2022-08-26T03:06:29.758Z,9.88
2022-08-26T03:08:57.094Z,6.55
2022-08-26T03:11:27.531Z,10.30
2022-08-26T03:13:56.623Z,8.63
2022-08-26T03:16:23.601Z,7.50
2022-08-26T03:18:52.310Z,8.27
2022-08-26T03:21:20.947Z,8.45
2022-08-26T03:23:48.767Z,9.73
2022-08-26T03:26:16.430Z,10.20
2022-08-26T03:29:02.200Z,9.65
2022-08-26T03:31:29.929Z,8.30
2022-08-26T03:33:59.516Z,7.97
2022-08-26T03:36:27.700Z,8.13
2022-08-26T03:38:54.545Z,11.25
2022-08-26T03:41:21.826Z,9.23
2022-08-26T03:43:50.989Z,12.15
2022-08-26T03:46:20.554Z,7.50
2022-08-26T03:48:47.905Z,10.68
2022-08-26T03:51:19.307Z,9.65
2022-08-26T03:53:48.151Z,12.23
2022-08-26T03:56:15.437Z,15.57
2022-08-26T03:58:44.394Z,9.55
2022-08-26T04:01:14.077Z,9.02
2022-08-26T04:04:00.498Z,12.00
2022-08-26T04:06:40.079Z,10.02
2022-08-26T04:09:19.793Z,9.27
2022-08-26T04:11:50.605Z,8.43
2022-08-26T04:14:22.930Z,10.88
2022-08-26T04:16:51.164Z,11.10
2022-08-26T04:19:20.325Z,9.38
2022-08-26T04:21:48.987Z,7.32
2022-08-26T04:24:17.559Z,6.68
2022-08-26T04:26:45.275Z,6.75
2022-08-26T04:29:21.390Z,8.65
2022-08-26T04:31:48.559Z,13.38
2022-08-26T04:34:17.132Z,10.90
2022-08-26T04:36:44.983Z,9.45
2022-08-26T04:39:16.502Z,11.40
2022-08-26T04:41:44.674Z,9.38
2022-08-26T04:44:11.721Z,7.82
2022-08-26T04:46:43.669Z,10.52
2022-08-26T04:49:11.864Z,9.98
2022-08-26T04:51:39.099Z,9.52
2022-08-26T04:54:07.137Z,7.07
2022-08-26T04:56:39.240Z,9.60
2022-08-26T04:59:16.928Z,14.50
2022-08-26T05:01:52.963Z,12.43
2022-08-26T05:04:21.067Z,9.00
2022-08-26T05:06:49.378Z,10.18
2022-08-26T05:09:18.633Z,15.43
2022-08-26T05:11:48.565Z,10.60
2022-08-26T05:14:23.125Z,8.35
2022-08-26T05:16:51.268Z,9.55
2022-08-26T05:19:18.846Z,8.27
2022-08-26T05:21:47.726Z,10.23
2022-08-26T05:24:15.530Z,10.07
2022-08-26T05:26:42.512Z,8.13
2022-08-26T05:29:12.210Z,10.02
2022-08-26T05:31:39.080Z,9.73
2022-08-26T05:34:07.032Z,9.40
2022-08-26T05:36:37.173Z,9.63
2022-08-26T05:39:06.691Z,8.90
2022-08-26T05:41:38.644Z,11.93
2022-08-26T05:44:10.421Z,14.02
2022-08-26T05:46:40.270Z,10.18
2022-08-26T05:49:12.814Z,11.60
2022-08-26T05:51:41.533Z,13.20
2022-08-26T05:54:10.414Z,11.45
2022-08-26T05:56:39.466Z,10.85
2022-08-26T05:59:10.911Z,11.77
2022-08-26T06:01:43.607Z,13.73
2022-08-26T06:04:12.072Z,13.77
2022-08-26T06:06:41.651Z,10.55
2022-08-26T06:09:11.233Z,12.43
2022-08-26T06:11:39.234Z,11.13
2022-08-26T06:14:08.201Z,11.05
2022-08-26T06:16:40.819Z,9.38
2022-08-26T06:19:11.661Z,10.98
2022-08-26T06:21:41.837Z,13.70
2022-08-26T06:24:32.166Z,10.18
2022-08-26T06:27:05.490Z,9.55
2022-08-26T06:29:36.128Z,9.82
2022-08-26T06:32:05.592Z,7.95
2022-08-26T06:34:32.903Z,12.18
2022-08-26T06:37:06.960Z,10.88
2022-08-26T06:39:34.409Z,8.82
2022-08-26T06:42:02.744Z,12.02
2022-08-26T06:44:30.631Z,11.90
2022-08-26T06:46:59.353Z,11.68
2022-08-26T06:49:27.527Z,13.93
2022-08-26T06:52:00.548Z,15.27
2022-08-26T06:54:31.888Z,8.23
2022-08-26T06:56:59.657Z,9.15
2022-08-26T06:59:26.789Z,9.02
2022-08-26T07:01:54.800Z,9.60
2022-08-26T07:04:23.207Z,12.18
2022-08-26T07:06:53.525Z,8.98
2022-08-26T07:09:23.572Z,9.93
2022-08-26T07:11:52.270Z,9.50
2022-08-26T07:14:21.745Z,10.98
2022-08-26T07:16:50.412Z,11.32
2022-08-26T07:19:30.401Z,10.43
2022-08-26T07:21:57.829Z,9.48
2022-08-26T07:24:24.638Z,10.82
2022-08-26T07:27:00.942Z,10.18
2022-08-26T07:29:29.212Z,11.98
2022-08-26T07:31:56.754Z,10.65
2022-08-26T07:34:24.081Z,8.82
2022-08-26T07:36:51.630Z,12.10
2022-08-26T07:39:19.477Z,11.07
2022-08-26T07:41:47.428Z,10.18
2022-08-26T07:44:15.746Z,9.90
2022-08-26T07:46:44.285Z,12.00
2022-08-26T07:49:19.608Z,7.22
2022-08-26T07:51:46.630Z,8.95
2022-08-26T07:54:13.450Z,7.97
2022-08-26T07:56:40.278Z,11.63
2022-08-26T07:59:13.500Z,9.40
2022-08-26T08:01:41.220Z,13.90
2022-08-26T08:04:17.211Z,9.07
2022-08-26T08:06:45.688Z,9.98
2022-08-26T08:09:16.028Z,8.95
2022-08-26T08:11:44.640Z,11.75
2022-08-26T08:14:12.623Z,7.63
2022-08-26T08:16:46.128Z,12.50
2022-08-26T08:19:15.360Z,12.60
2022-08-26T08:21:43.886Z,10.10
2022-08-26T08:24:11.398Z,10.95
2022-08-26T08:26:38.899Z,11.88
2022-08-26T08:29:07.987Z,11.75
2022-08-26T08:31:56.768Z,9.98
2022-08-26T08:34:24.086Z,10.38
2022-08-26T08:36:53.327Z,9.63
2022-08-26T08:39:20.601Z,8.85
2022-08-26T08:42:31.799Z,6.72
2022-08-26T08:45:07.102Z,11.40
2022-08-26T08:47:47.460Z,10.65
2022-08-26T08:50:30.905Z,10.48
2022-08-26T08:53:38.535Z,8.38
2022-08-26T08:56:31.445Z,8.13
2022-08-26T08:59:18.619Z,8.63
2022-08-26T09:01:58.155Z,8.65
2022-08-26T09:05:16.081Z,7.97
2022-08-26T09:07:53.471Z,7.90
2022-08-26T09:10:44.376Z,7.88
2022-08-26T09:13:16.776Z,10.15
2022-08-26T09:16:15.878Z,12.15
2022-08-26T09:19:11.512Z,13.52
2022-08-26T09:21:38.474Z,10.35
2022-08-26T09:24:06.696Z,8.15
2022-08-26T09:26:39.467Z,12.65
2022-08-26T09:29:23.973Z,9.40
2022-08-26T09:31:53.289Z,9.60
2022-08-26T09:34:27.787Z,12.77
2022-08-26T09:37:00.071Z,9.68
2022-08-26T09:39:38.707Z,9.07
2022-08-26T09:42:25.862Z,10.93
2022-08-26T09:45:08.352Z,8.80
2022-08-26T09:47:52.197Z,11.90
2022-08-26T09:50:28.694Z,7.85
2022-08-26T09:53:28.819Z,12.05
2022-08-26T09:56:32.072Z,11.75
2022-08-26T09:59:01.562Z,7.78
2022-08-26T10:01:36.257Z,11.90
2022-08-26T10:04:14.607Z,9.02
2022-08-26T10:06:59.577Z,8.32
2022-08-26T10:09:28.364Z,7.72
2022-08-26T10:12:04.305Z,11.40
2022-08-26T10:14:49.343Z,10.25
2022-08-26T10:18:01.461Z,13.88
2022-08-26T10:20:36.192Z,12.82
2022-08-26T10:23:03.356Z,12.10
2022-08-26T10:25:56.962Z,14.02
2022-08-26T10:29:01.551Z,9.85
2022-08-26T10:31:51.997Z,9.52
2022-08-26T10:34:19.243Z,10.02
2022-08-26T10:37:14.369Z,9.73
2022-08-26T10:40:15.370Z,10.85
2022-08-26T10:42:50.110Z,10.65
2022-08-26T10:45:26.320Z,13.25
2022-08-26T10:48:10.109Z,11.40
2022-08-26T10:50:41.848Z,12.32
2022-08-26T10:53:24.867Z,8.38
2022-08-26T10:56:18.562Z,13.82
2022-08-26T10:59:03.328Z,13.70
2022-08-26T11:01:53.748Z,11.07
2022-08-26T11:04:49.128Z,12.55
2022-08-26T11:07:43.049Z,11.90
2022-08-26T11:10:54.190Z,12.30
2022-08-26T11:13:56.189Z,10.55
2022-08-26T11:16:43.479Z,9.13
2022-08-26T11:19:59.328Z,9.10
2022-08-26T11:22:36.351Z,7.63
2022-08-26T11:25:11.592Z,9.60
2022-08-26T11:27:38.543Z,10.57
2022-08-26T11:30:27.610Z,8.40
2022-08-26T11:32:58.825Z,11.40
2022-08-26T11:35:26.435Z,7.90
2022-08-26T11:37:59.489Z,13.63
2022-08-26T11:40:38.445Z,10.30
2022-08-26T11:43:20.521Z,9.82
2022-08-26T11:45:59.529Z,15.20
2022-08-26T11:48:27.154Z,11.18
2022-08-26T11:51:23.286Z,8.63
2022-08-26T11:53:51.153Z,9.02
2022-08-26T11:56:33.166Z,9.45
2022-08-26T11:59:07.098Z,10.15
2022-08-26T12:01:42.940Z,9.70
2022-08-26T12:04:33.241Z,8.80
2022-08-26T12:07:02.142Z,9.27
2022-08-26T12:09:35.572Z,6.47
2022-08-26T12:12:23.277Z,7.32
2022-08-26T12:15:17.612Z,7.35
2022-08-26T12:17:51.682Z,3.80
2022-08-26T12:20:48.678Z,6.10
2022-08-26T12:23:35.126Z,5.80
2022-08-26T12:26:08.518Z,4.43
2022-08-26T12:29:19.886Z,5.05
2022-08-26T12:31:47.980Z,3.20
2022-08-26T12:34:17.583Z,4.88
2022-08-26T12:39:38.158Z,5.95
2022-08-26T12:42:16.781Z,3.92
2022-08-26T12:44:59.489Z,5.07
2022-08-26T12:47:42.574Z,6.55
2022-08-26T12:50:21.159Z,6.88
2022-08-26T12:53:12.645Z,4.72
2022-08-26T12:55:57.214Z,5.38
2022-08-26T12:58:39.285Z,5.07
2022-08-26T13:01:06.542Z,5.32
2022-08-26T13:03:44.582Z,7.40
2022-08-26T13:06:29.738Z,5.43
2022-08-26T13:09:01.056Z,4.13
2022-08-26T13:11:31.505Z,6.55
2022-08-26T13:14:07.411Z,6.00
2022-08-26T13:16:36.575Z,6.35
2022-08-26T13:19:10.761Z,5.40
2022-08-26T13:21:52.921Z,6.30
2022-08-26T13:24:42.040Z,6.07
2022-08-26T13:27:12.248Z,5.63
2022-08-26T13:29:39.502Z,6.55
2022-08-26T13:32:08.698Z,6.13
2022-08-26T13:34:38.262Z,6.22
2022-08-26T13:37:06.275Z,7.05
2022-08-26T13:39:33.219Z,4.85
2022-08-26T13:42:00.303Z,5.75
2022-08-26T13:44:27.487Z,7.20
2022-08-26T13:46:54.647Z,8.45
2022-08-26T13:49:22.410Z,6.78
2022-08-26T13:51:49.174Z,5.20
2022-08-26T13:54:16.224Z,8.80
2022-08-26T13:56:43.063Z,6.28
2022-08-26T13:59:10.609Z,7.95
2022-08-26T14:01:39.808Z,6.55
2022-08-26T14:04:07.092Z,4.38
2022-08-26T14:06:34.087Z,5.32
2022-08-26T14:09:01.042Z,6.90
2022-08-26T14:11:29.637Z,4.47
2022-08-26T14:14:05.830Z,4.80
2022-08-26T14:16:37.696Z,7.10
2022-08-26T14:19:24.562Z,7.20
2022-08-26T14:21:51.312Z,6.50
2022-08-26T14:24:18.076Z,5.13
2022-08-26T14:26:44.876Z,5.93
2022-08-26T14:29:14.714Z,5.13
2022-08-26T14:31:43.729Z,5.75
2022-08-26T14:34:13.763Z,11.90
2022-08-26T14:36:40.547Z,6.75
2022-08-26T14:39:11.512Z,7.43
2022-08-26T14:41:54.198Z,5.25
2022-08-26T14:44:27.735Z,6.28
2022-08-26T14:46:55.362Z,6.75
2022-08-26T14:49:24.005Z,4.93
2022-08-26T14:51:50.745Z,5.75
2022-08-26T14:54:19.856Z,5.88
2022-08-26T14:56:55.370Z,5.50
2022-08-26T14:59:26.957Z,8.00
2022-08-26T15:01:54.873Z,9.93
2022-08-26T15:04:23.096Z,8.63
2022-08-26T15:06:51.804Z,6.40
2022-08-26T15:09:18.866Z,6.10
2022-08-26T15:11:47.644Z,7.30
2022-08-26T15:14:19.804Z,5.70
2022-08-26T15:16:53.256Z,4.75
2022-08-26T15:19:20.937Z,6.60
2022-08-26T15:21:49.094Z,6.22
2022-08-26T15:24:21.978Z,4.72
2022-08-26T15:26:50.027Z,4.95
2022-08-26T15:29:18.097Z,5.60
2022-08-26T15:31:45.373Z,7.00
2022-08-26T15:34:16.363Z,4.88
2022-08-26T15:36:46.646Z,5.38
2022-08-26T15:39:16.135Z,6.10
2022-08-26T15:41:43.181Z,5.72
2022-08-26T15:44:11.620Z,6.40
2022-08-26T15:46:39.527Z,4.70
2022-08-26T15:49:07.405Z,7.95
2022-08-26T15:51:45.684Z,5.32
2022-08-26T15:54:16.643Z,5.18
2022-08-26T15:56:44.340Z,6.05
2022-08-26T15:59:12.128Z,7.95
2022-08-26T16:01:39.867Z,7.90
2022-08-26T16:04:07.689Z,5.90
2022-08-26T16:06:38.796Z,8.27
2022-08-26T16:09:07.201Z,7.18
2022-08-26T16:11:36.053Z,6.32
2022-08-26T16:14:04.912Z,6.43
2022-08-26T16:16:32.300Z,6.97
2022-08-26T16:18:59.880Z,8.55
2022-08-26T16:21:28.564Z,5.78
2022-08-26T16:23:57.318Z,8.65
2022-08-26T16:26:29.219Z,5.05
2022-08-26T16:28:56.006Z,6.18
2022-08-26T16:31:23.576Z,5.32
2022-08-26T16:33:51.290Z,5.80
2022-08-26T16:36:18.154Z,5.60
2022-08-26T16:38:55.166Z,6.50
2022-08-26T16:41:25.259Z,6.35
2022-08-26T16:43:52.677Z,5.28
2022-08-26T16:46:22.157Z,5.85
2022-08-26T16:48:49.419Z,4.80
2022-08-26T16:51:22.854Z,5.32
2022-08-26T16:53:51.566Z,4.88
2022-08-26T16:56:23.498Z,6.45
2022-08-26T16:59:00.519Z,4.97
2022-08-26T17:01:27.816Z,5.60
2022-08-26T17:03:54.752Z,6.65
2022-08-26T17:06:21.845Z,7.28
2022-08-26T17:08:49.327Z,7.82
2022-08-26T17:11:16.165Z,6.95
2022-08-26T17:13:43.052Z,7.72
2022-08-26T17:16:12.186Z,7.18
2022-08-26T17:18:39.098Z,7.15
2022-08-26T17:21:10.172Z,6.97
2022-08-26T17:23:39.269Z,6.88
2022-08-26T17:26:06.944Z,8.05
2022-08-26T17:28:33.789Z,6.40
2022-08-26T17:31:01.579Z,8.35
2022-08-26T17:33:29.106Z,8.05
2022-08-26T17:35:56.033Z,9.10
2022-08-26T17:38:23.249Z,7.95
2022-08-26T17:40:50.888Z,9.23
2022-08-26T17:43:18.358Z,6.55
2022-08-26T17:45:45.349Z,8.85
2022-08-26T17:48:12.594Z,7.30
2022-08-26T17:50:43.549Z,8.13
2022-08-26T17:53:18.454Z,7.63
2022-08-26T17:55:47.358Z,7.32
2022-08-26T17:58:17.753Z,7.72
2022-08-26T18:00:50.823Z,7.65
2022-08-26T18:03:19.172Z,6.67
2022-08-26T18:05:51.456Z,6.97
2022-08-26T18:08:18.892Z,8.18
2022-08-26T18:10:46.602Z,6.78
2022-08-26T18:13:14.859Z,7.40
2022-08-26T18:15:45.390Z,6.43
2022-08-26T18:18:14.500Z,6.93
2022-08-26T18:20:43.476Z,7.65
2022-08-26T18:23:11.686Z,6.88
2022-08-26T18:25:43.761Z,6.00
2022-08-26T18:28:10.782Z,6.10
2022-08-26T18:30:37.826Z,6.53
2022-08-26T18:33:04.733Z,6.47
2022-08-26T18:35:31.603Z,6.15
2022-08-26T18:38:01.292Z,6.15
2022-08-26T18:40:43.920Z,6.38
2022-08-26T18:43:11.406Z,6.25
2022-08-26T18:45:38.607Z,6.13
2022-08-26T18:48:05.979Z,8.20
2022-08-26T18:50:33.126Z,6.43
2022-08-26T18:53:01.910Z,8.25
2022-08-26T18:55:28.680Z,6.07
2022-08-26T18:57:55.448Z,6.40
2022-08-26T19:00:22.443Z,6.53
2022-08-26T19:02:52.045Z,6.38
2022-08-26T19:05:22.482Z,6.05
2022-08-26T19:07:49.310Z,5.93
2022-08-26T19:10:16.238Z,7.85
2022-08-26T19:12:43.485Z,6.57
2022-08-26T19:15:11.300Z,6.45
2022-08-26T19:17:38.097Z,7.80
2022-08-26T19:20:05.911Z,8.23
2022-08-26T19:22:33.074Z,7.85
2022-08-26T19:25:00.773Z,7.00
2022-08-26T19:27:27.791Z,7.47
2022-08-26T19:29:54.537Z,8.05
2022-08-26T19:32:24.234Z,6.80
2022-08-26T19:34:54.501Z,6.78
2022-08-26T19:37:21.654Z,6.80
2022-08-26T19:39:48.522Z,8.15
2022-08-26T19:42:16.482Z,6.80
2022-08-26T19:45:01.760Z,7.13
2022-08-26T19:47:28.526Z,8.18
2022-08-26T19:49:56.229Z,9.00
2022-08-26T19:52:29.811Z,7.25
2022-08-26T19:54:57.796Z,7.70
2022-08-26T19:57:25.529Z,7.20
2022-08-26T19:59:52.397Z,7.43
2022-08-26T20:02:19.329Z,7.78
2022-08-26T20:04:46.848Z,7.63
2022-08-26T20:07:18.083Z,6.50
2022-08-26T20:09:47.854Z,8.57
2022-08-26T20:12:16.235Z,8.38
2022-08-26T20:14:43.429Z,6.38
2022-08-26T20:17:11.673Z,8.18
2022-08-26T20:19:57.033Z,8.85
2022-08-26T20:22:24.018Z,8.05
2022-08-26T20:24:52.102Z,7.60
2022-08-26T20:27:18.960Z,7.53
2022-08-26T20:29:45.760Z,7.78
2022-08-26T20:32:12.648Z,7.35
2022-08-26T20:34:40.054Z,7.93
2022-08-26T20:37:08.700Z,7.78
2022-08-26T20:39:36.162Z,7.60
2022-08-26T20:42:03.319Z,7.85
2022-08-26T20:44:30.336Z,9.05
2022-08-26T20:46:59.046Z,8.40
2022-08-26T20:49:27.814Z,7.80
2022-08-26T20:51:55.269Z,8.32
2022-08-26T20:54:28.208Z,7.35
2022-08-26T20:56:57.709Z,8.15
2022-08-26T20:59:25.625Z,8.55
2022-08-26T21:01:52.542Z,8.55
2022-08-26T21:04:23.405Z,8.43
2022-08-26T21:06:52.875Z,7.57
2022-08-26T21:09:22.732Z,8.13
2022-08-26T21:11:50.158Z,7.55
2022-08-26T21:14:18.897Z,7.53
2022-08-26T21:16:47.104Z,8.43
2022-08-26T21:19:18.368Z,6.45
2022-08-26T21:21:48.078Z,7.85
2022-08-26T21:24:15.559Z,6.65
2022-08-26T21:26:42.540Z,7.07
2022-08-26T21:29:09.704Z,6.60
2022-08-26T21:31:42.235Z,6.30
2022-08-26T21:34:11.886Z,6.05
2022-08-26T21:36:38.793Z,6.18
2022-08-26T21:39:10.748Z,7.97
2022-08-26T21:41:39.251Z,6.93
2022-08-26T21:44:06.096Z,6.55
2022-08-26T21:46:36.487Z,6.35
2022-08-26T21:49:08.452Z,6.65
2022-08-26T21:51:39.976Z,6.32
2022-08-26T21:54:11.003Z,6.20
2022-08-26T21:56:44.124Z,6.22
2022-08-26T21:59:11.268Z,6.80
2022-08-26T22:01:38.171Z,6.82
2022-08-26T22:04:08.616Z,6.30
2022-08-26T22:06:43.657Z,6.70
2022-08-26T22:09:12.340Z,6.65
2022-08-26T22:11:39.914Z,7.10
2022-08-26T22:14:06.883Z,8.02
2022-08-26T22:16:33.823Z,6.90
2022-08-26T22:19:00.733Z,8.07
2022-08-26T22:21:28.407Z,7.10
2022-08-26T22:23:58.484Z,6.55
2022-08-26T22:26:30.271Z,7.60
2022-08-26T22:28:59.643Z,6.95
2022-08-26T22:31:37.089Z,6.72
2022-08-26T22:34:08.904Z,9.40
2022-08-26T22:36:42.953Z,7.70
2022-08-26T22:39:13.433Z,6.93
2022-08-26T22:41:42.975Z,6.65
2022-08-26T22:44:11.991Z,6.60
2022-08-26T22:46:40.990Z,6.78
2022-08-26T22:49:11.342Z,6.90
2022-08-26T22:51:38.536Z,6.57
2022-08-26T22:54:06.716Z,6.65
2022-08-26T22:56:34.452Z,7.50
2022-08-26T22:59:01.393Z,7.75
2022-08-26T23:01:28.389Z,6.93
2022-08-26T23:03:55.535Z,6.85
2022-08-26T23:06:22.361Z,9.35
2022-08-26T23:08:49.581Z,7.35
2022-08-26T23:11:16.559Z,8.52
2022-08-26T23:13:43.457Z,6.70
2022-08-26T23:16:12.456Z,7.40
2022-08-26T23:18:41.293Z,7.13
2022-08-26T23:21:09.407Z,7.10
2022-08-26T23:23:37.941Z,7.43
2022-08-26T23:26:06.982Z,7.18
2022-08-26T23:28:36.509Z,6.70
2022-08-26T23:31:04.674Z,7.30
2022-08-26T23:33:49.978Z,7.20
2022-08-26T23:36:22.825Z,7.50
2022-08-26T23:38:52.716Z,7.33
2022-08-26T23:41:22.730Z,6.95
2022-08-26T23:43:50.309Z,8.15
2022-08-26T23:46:17.989Z,7.47
2022-08-26T23:48:45.316Z,7.30
2022-08-26T23:51:31.107Z,6.07
2022-08-26T23:53:58.364Z,6.45
2022-08-26T23:56:26.706Z,6.65
2022-08-26T23:58:54.883Z,6.80
